Terminal Aerodrome Forecast
Issued by NWS Chicago, IL

Home | Current Version | Previous Version | Text Only | Print | Product List | Glossary Off
Versions: 1 2 3 4 5 6 7 8 9 10 11 12 13 14 15 16 17 18 19 20 21 22 23 24 25 26 27 28 29 30 31 32 33 34

000
FTUS43 KLOT 142300
TAFRFD
TAF
KRFD 142339Z 1500/1524 19007KT 1SM -DZ BR OVC003
     FM150200 17007KT 1/2SM FG VV001
     FM151100 17007KT 1SM BR OVC002
     FM151300 17011KT 5SM BR OVC007
     FM151600 15014KT P6SM OVC012
      TEMPO 1517/1521 -SHRA
     FM152100 14010KT 3SM -DZRA BR OVC007=

USA.gov is the U.S. government's official web portal to all federal, state and local government web resources and services.